Southernpec 3 — V7RY8 — position and weather

sailwx.info

Track history (hours):
 
Tides and Currents Weather Stations Pressure Air Temp Water Temp Dewpoint Dewpoint Depression Visibility Wind Speed Wind Dir Waves Ship Positions

Southernpec 3

Last reported at 2017-Sep-24 00:13 UTC. Time now 2017-Nov-21 23:16 UTC.
Position N 37°21' E 025°55'.
Warning: this ship's position is 58 days out of date.

Length 328 m; draft 12 m.

Type: Tanker. MMSI: 538003604.

Date/timePositionNaut miles runAvg speedWind from/ knotsBaromVisibWave heightAir tempDewpointWater temp
2017-Sep-24 00:13N 37°21' E 025°55'312.2
2017-Sep-24 00:01N 37°23' E 025°52'611.9
2017-Sep-23 23:30N 37°28' E 025°47'1212.6
2017-Sep-23 22:32N 37°40' E 025°47'212.9
2017-Sep-23 22:21N 37°42' E 025°47'  
2017-Sep-21 04:58N 45°49' E 030°59'5 9.9
2017-Sep-21 04:29N 45°54' E 031°02'510.0
2017-Sep-21 03:59N 45°58' E 031°05'510.1
2017-Sep-21 03:30N 46°03' E 031°06'5 8.9
2017-Sep-21 02:58N 46°07' E 031°04'5 9.9
2017-Sep-21 02:30N 46°11' E 030°59'5 9.9
2017-Sep-21 01:59N 46°14' E 030°54'4 8.9
2017-Sep-21 01:30N 46°19' E 030°55'510.3
2017-Sep-21 01:00N 46°24' E 030°55'510.3
2017-Sep-21 00:30N 46°29' E 030°55'4 8.4
2017-Sep-21 00:00N 46°33' E 030°58'4 7.0
2017-Sep-20 23:30N 46°35' E 031°01'3 5.0
2017-Sep-20 23:00N 46°38' E 031°01'  
2017-Sep-18 02:24N 46°38' E 031°01'0 0.0
2017-Sep-18 02:00N 46°38' E 031°01'0 0.0
2017-Sep-18 01:27N 46°38' E 031°01'0 0.0
2017-Sep-18 00:51N 46°38' E 031°01'0 0.0
2017-Sep-18 00:27N 46°38' E 031°01'0 0.0
2017-Sep-18 00:00N 46°38' E 031°01'0 0.0
2017-Sep-17 23:30N 46°38' E 031°01'0 0.0
2017-Sep-17 23:00N 46°38' E 031°01'0 0.0
2017-Sep-17 22:27N 46°38' E 031°01'0 0.0
2017-Sep-17 21:54N 46°38' E 031°01'  
Track history (hours):
 
Tides and Currents Weather Stations Pressure Air Temp Water Temp Dewpoint Dewpoint Depression Visibility Wind Speed Wind Dir Waves Ship Positions

Southernpec 3

Last reported at 2017-Sep-24 00:13 UTC. Time now 2017-Nov-21 23:16 UTC.
Position N 37°21' E 025°55'.
Warning: this ship's position is 58 days out of date.

Length 328 m; draft 12 m.

Type: Tanker. MMSI: 538003604.

Date/timePositionNaut miles runAvg speedWind from/ knotsBaromVisibWave heightAir tempDewpointWater temp
2017-Sep-24 00:13N 37°21' E 025°55'312.2
2017-Sep-24 00:01N 37°23' E 025°52'611.9
2017-Sep-23 23:30N 37°28' E 025°47'1212.6
2017-Sep-23 22:32N 37°40' E 025°47'212.9
2017-Sep-23 22:21N 37°42' E 025°47'  
2017-Sep-21 04:58N 45°49' E 030°59'5 9.9
2017-Sep-21 04:29N 45°54' E 031°02'510.0
2017-Sep-21 03:59N 45°58' E 031°05'510.1
2017-Sep-21 03:30N 46°03' E 031°06'5 8.9
2017-Sep-21 02:58N 46°07' E 031°04'5 9.9
2017-Sep-21 02:30N 46°11' E 030°59'5 9.9
2017-Sep-21 01:59N 46°14' E 030°54'4 8.9
2017-Sep-21 01:30N 46°19' E 030°55'510.3
2017-Sep-21 01:00N 46°24' E 030°55'510.3
2017-Sep-21 00:30N 46°29' E 030°55'4 8.4
2017-Sep-21 00:00N 46°33' E 030°58'4 7.0
2017-Sep-20 23:30N 46°35' E 031°01'3 5.0
2017-Sep-20 23:00N 46°38' E 031°01'  
2017-Sep-18 02:24N 46°38' E 031°01'0 0.0
2017-Sep-18 02:00N 46°38' E 031°01'0 0.0
2017-Sep-18 01:27N 46°38' E 031°01'0 0.0
2017-Sep-18 00:51N 46°38' E 031°01'0 0.0
2017-Sep-18 00:27N 46°38' E 031°01'0 0.0
2017-Sep-18 00:00N 46°38' E 031°01'0 0.0
2017-Sep-17 23:30N 46°38' E 031°01'0 0.0
2017-Sep-17 23:00N 46°38' E 031°01'0 0.0
2017-Sep-17 22:27N 46°38' E 031°01'0 0.0
2017-Sep-17 21:54N 46°38' E 031°01'  

Dump ship's entire track history